sensor_id;sensor_type;location;lat;lon;timestamp;temperature;humidity
12849;DHT22;6493;50.928;7.172;2024-02-16T00:00:25;9.00;63.00
12849;DHT22;6493;50.928;7.172;2024-02-16T00:05:29;9.00;63.00
12849;DHT22;6493;50.928;7.172;2024-02-16T00:10:33;9.00;63.00
12849;DHT22;6493;50.928;7.172;2024-02-16T00:15:38;9.00;63.00
12849;DHT22;6493;50.928;7.172;2024-02-16T00:20:41;9.00;63.10
12849;DHT22;6493;50.928;7.172;2024-02-16T00:25:46;9.00;63.10
12849;DHT22;6493;50.928;7.172;2024-02-16T00:30:53;9.00;62.70
12849;DHT22;6493;50.928;7.172;2024-02-16T00:35:57;9.00;62.70
12849;DHT22;6493;50.928;7.172;2024-02-16T00:41:01;9.00;62.60
12849;DHT22;6493;50.928;7.172;2024-02-16T00:46:06;9.10;62.60
12849;DHT22;6493;50.928;7.172;2024-02-16T00:51:09;9.10;62.70
12849;DHT22;6493;50.928;7.172;2024-02-16T00:56:13;9.00;62.40
12849;DHT22;6493;50.928;7.172;2024-02-16T01:01:18;9.10;62.70
12849;DHT22;6493;50.928;7.172;2024-02-16T01:06:23;9.10;62.60
12849;DHT22;6493;50.928;7.172;2024-02-16T01:11:27;9.10;62.70
12849;DHT22;6493;50.928;7.172;2024-02-16T01:16:32;9.10;62.50
12849;DHT22;6493;50.928;7.172;2024-02-16T01:21:36;9.10;62.50
12849;DHT22;6493;50.928;7.172;2024-02-16T01:26:39;9.10;62.50
12849;DHT22;6493;50.928;7.172;2024-02-16T01:31:44;9.20;62.80
12849;DHT22;6493;50.928;7.172;2024-02-16T01:36:48;9.20;62.80
12849;DHT22;6493;50.928;7.172;2024-02-16T01:41:52;9.20;62.90
12849;DHT22;6493;50.928;7.172;2024-02-16T01:46:59;9.20;62.50
12849;DHT22;6493;50.928;7.172;2024-02-16T01:52:04;9.20;62.50
12849;DHT22;6493;50.928;7.172;2024-02-16T01:57:08;9.10;62.00
12849;DHT22;6493;50.928;7.172;2024-02-16T02:02:14;9.20;62.20
12849;DHT22;6493;50.928;7.172;2024-02-16T02:07:18;9.20;62.60
12849;DHT22;6493;50.928;7.172;2024-02-16T02:12:24;9.20;62.70
12849;DHT22;6493;50.928;7.172;2024-02-16T02:17:29;9.20;62.80
12849;DHT22;6493;50.928;7.172;2024-02-16T02:22:35;9.20;62.90
12849;DHT22;6493;50.928;7.172;2024-02-16T02:27:38;9.10;63.10
12849;DHT22;6493;50.928;7.172;2024-02-16T02:32:42;9.10;63.10
12849;DHT22;6493;50.928;7.172;2024-02-16T02:37:47;9.10;63.20
12849;DHT22;6493;50.928;7.172;2024-02-16T02:42:51;9.10;63.30
12849;DHT22;6493;50.928;7.172;2024-02-16T02:47:55;9.00;63.20
12849;DHT22;6493;50.928;7.172;2024-02-16T02:53:00;9.00;63.30
12849;DHT22;6493;50.928;7.172;2024-02-16T02:58:04;9.00;63.40
12849;DHT22;6493;50.928;7.172;2024-02-16T03:03:07;9.00;63.40
12849;DHT22;6493;50.928;7.172;2024-02-16T03:08:12;9.00;63.40
12849;DHT22;6493;50.928;7.172;2024-02-16T03:13:16;9.00;63.50
12849;DHT22;6493;50.928;7.172;2024-02-16T03:18:21;9.00;63.50
12849;DHT22;6493;50.928;7.172;2024-02-16T03:23:27;9.00;63.60
12849;DHT22;6493;50.928;7.172;2024-02-16T03:28:30;9.00;63.60
12849;DHT22;6493;50.928;7.172;2024-02-16T03:33:34;9.00;63.60
12849;DHT22;6493;50.928;7.172;2024-02-16T03:38:41;9.00;63.70
12849;DHT22;6493;50.928;7.172;2024-02-16T03:43:45;9.00;63.80
12849;DHT22;6493;50.928;7.172;2024-02-16T03:48:48;8.90;63.70
12849;DHT22;6493;50.928;7.172;2024-02-16T03:53:54;9.00;63.80
12849;DHT22;6493;50.928;7.172;2024-02-16T03:58:57;9.00;63.80
12849;DHT22;6493;50.928;7.172;2024-02-16T04:04:01;9.00;63.80
12849;DHT22;6493;50.928;7.172;2024-02-16T04:09:07;9.00;63.90
12849;DHT22;6493;50.928;7.172;2024-02-16T04:14:10;9.00;64.00
12849;DHT22;6493;50.928;7.172;2024-02-16T04:19:14;8.90;63.90
12849;DHT22;6493;50.928;7.172;2024-02-16T04:24:20;8.90;63.90
12849;DHT22;6493;50.928;7.172;2024-02-16T04:29:23;8.90;64.20
12849;DHT22;6493;50.928;7.172;2024-02-16T04:34:27;8.90;64.40
12849;DHT22;6493;50.928;7.172;2024-02-16T04:39:33;8.90;64.80
12849;DHT22;6493;50.928;7.172;2024-02-16T04:44:36;8.80;64.80
12849;DHT22;6493;50.928;7.172;2024-02-16T04:49:41;8.80;65.60
12849;DHT22;6493;50.928;7.172;2024-02-16T04:54:46;8.90;65.00
12849;DHT22;6493;50.928;7.172;2024-02-16T04:59:50;8.90;65.20
12849;DHT22;6493;50.928;7.172;2024-02-16T05:04:54;8.90;65.20
12849;DHT22;6493;50.928;7.172;2024-02-16T05:10:00;8.90;65.10
12849;DHT22;6493;50.928;7.172;2024-02-16T05:15:05;8.80;65.10
12849;DHT22;6493;50.928;7.172;2024-02-16T05:20:10;8.80;65.10
12849;DHT22;6493;50.928;7.172;2024-02-16T05:25:19;8.80;65.20
12849;DHT22;6493;50.928;7.172;2024-02-16T05:30:22;8.80;65.50
12849;DHT22;6493;50.928;7.172;2024-02-16T05:35:26;8.80;65.50
12849;DHT22;6493;50.928;7.172;2024-02-16T05:40:32;8.80;65.50
12849;DHT22;6493;50.928;7.172;2024-02-16T05:45:47;8.80;65.60
12849;DHT22;6493;50.928;7.172;2024-02-16T05:50:51;8.80;65.50
12849;DHT22;6493;50.928;7.172;2024-02-16T05:55:56;8.80;65.40
12849;DHT22;6493;50.928;7.172;2024-02-16T06:01:00;8.80;65.50
12849;DHT22;6493;50.928;7.172;2024-02-16T06:06:04;8.80;65.60
12849;DHT22;6493;50.928;7.172;2024-02-16T06:11:10;8.70;65.40
12849;DHT22;6493;50.928;7.172;2024-02-16T06:16:13;8.80;65.60
12849;DHT22;6493;50.928;7.172;2024-02-16T06:21:18;8.80;66.20
12849;DHT22;6493;50.928;7.172;2024-02-16T06:26:23;8.80;65.50
12849;DHT22;6493;50.928;7.172;2024-02-16T06:31:26;8.80;65.50
12849;DHT22;6493;50.928;7.172;2024-02-16T06:36:30;8.80;65.40
12849;DHT22;6493;50.928;7.172;2024-02-16T06:41:36;8.90;65.40
12849;DHT22;6493;50.928;7.172;2024-02-16T06:46:39;8.90;65.40
12849;DHT22;6493;50.928;7.172;2024-02-16T06:51:43;8.90;65.20
12849;DHT22;6493;50.928;7.172;2024-02-16T06:56:49;8.90;65.20
12849;DHT22;6493;50.928;7.172;2024-02-16T07:01:53;9.00;65.20
12849;DHT22;6493;50.928;7.172;2024-02-16T07:06:57;9.00;65.20
12849;DHT22;6493;50.928;7.172;2024-02-16T07:12:03;9.00;65.10
12849;DHT22;6493;50.928;7.172;2024-02-16T07:17:07;9.10;65.30
12849;DHT22;6493;50.928;7.172;2024-02-16T07:22:12;9.10;65.90
12849;DHT22;6493;50.928;7.172;2024-02-16T07:27:17;9.10;65.20
12849;DHT22;6493;50.928;7.172;2024-02-16T07:32:21;9.10;65.10
12849;DHT22;6493;50.928;7.172;2024-02-16T07:37:24;9.20;65.20
12849;DHT22;6493;50.928;7.172;2024-02-16T07:42:29;9.30;65.40
12849;DHT22;6493;50.928;7.172;2024-02-16T07:47:33;9.30;65.30
12849;DHT22;6493;50.928;7.172;2024-02-16T07:52:38;9.30;65.20
12849;DHT22;6493;50.928;7.172;2024-02-16T07:57:43;9.40;65.30
12849;DHT22;6493;50.928;7.172;2024-02-16T08:02:47;9.40;65.20
12849;DHT22;6493;50.928;7.172;2024-02-16T08:07:50;9.40;65.30
12849;DHT22;6493;50.928;7.172;2024-02-16T08:12:56;9.40;65.20
12849;DHT22;6493;50.928;7.172;2024-02-16T08:18:00;9.50;65.30
12849;DHT22;6493;50.928;7.172;2024-02-16T08:23:04;9.40;65.00
12849;DHT22;6493;50.928;7.172;2024-02-16T08:28:09;9.50;65.20
12849;DHT22;6493;50.928;7.172;2024-02-16T08:33:12;9.50;65.00
12849;DHT22;6493;50.928;7.172;2024-02-16T08:38:16;9.60;65.10
12849;DHT22;6493;50.928;7.172;2024-02-16T08:43:21;9.60;65.10
12849;DHT22;6493;50.928;7.172;2024-02-16T08:48:25;9.60;65.20
12849;DHT22;6493;50.928;7.172;2024-02-16T08:53:29;9.60;65.20
12849;DHT22;6493;50.928;7.172;2024-02-16T08:58:33;9.60;65.30
12849;DHT22;6493;50.928;7.172;2024-02-16T09:03:37;9.70;65.40
12849;DHT22;6493;50.928;7.172;2024-02-16T09:08:42;9.70;65.50
12849;DHT22;6493;50.928;7.172;2024-02-16T09:13:48;9.80;65.40
12849;DHT22;6493;50.928;7.172;2024-02-16T09:18:51;9.90;65.40
12849;DHT22;6493;50.928;7.172;2024-02-16T09:23:55;10.00;65.60
12849;DHT22;6493;50.928;7.172;2024-02-16T09:29:02;10.10;65.60
12849;DHT22;6493;50.928;7.172;2024-02-16T09:34:05;10.10;65.50
12849;DHT22;6493;50.928;7.172;2024-02-16T09:39:09;10.10;65.40
12849;DHT22;6493;50.928;7.172;2024-02-16T09:44:14;10.20;65.40
12849;DHT22;6493;50.928;7.172;2024-02-16T09:49:18;10.20;65.20
12849;DHT22;6493;50.928;7.172;2024-02-16T09:54:36;10.20;65.10
12849;DHT22;6493;50.928;7.172;2024-02-16T09:59:42;10.30;65.30
12849;DHT22;6493;50.928;7.172;2024-02-16T10:04:45;10.30;65.40
12849;DHT22;6493;50.928;7.172;2024-02-16T10:09:49;10.30;65.40
12849;DHT22;6493;50.928;7.172;2024-02-16T10:14:57;10.30;65.20
12849;DHT22;6493;50.928;7.172;2024-02-16T10:20:03;10.30;65.20
12849;DHT22;6493;50.928;7.172;2024-02-16T10:25:09;10.20;65.20
12849;DHT22;6493;50.928;7.172;2024-02-16T10:30:17;10.20;65.30
12849;DHT22;6493;50.928;7.172;2024-02-16T10:35:21;10.20;65.70
12849;DHT22;6493;50.928;7.172;2024-02-16T10:40:27;10.10;65.60
12849;DHT22;6493;50.928;7.172;2024-02-16T10:45:35;10.10;65.80
12849;DHT22;6493;50.928;7.172;2024-02-16T10:50:38;10.10;66.20
12849;DHT22;6493;50.928;7.172;2024-02-16T10:55:43;10.10;66.30
12849;DHT22;6493;50.928;7.172;2024-02-16T11:00:53;10.00;66.40
12849;DHT22;6493;50.928;7.172;2024-02-16T11:05:57;10.00;66.60
12849;DHT22;6493;50.928;7.172;2024-02-16T11:11:02;9.90;66.60
12849;DHT22;6493;50.928;7.172;2024-02-16T11:16:09;9.80;66.60
12849;DHT22;6493;50.928;7.172;2024-02-16T11:21:15;9.80;66.90
12849;DHT22;6493;50.928;7.172;2024-02-16T11:26:19;9.90;67.90
12849;DHT22;6493;50.928;7.172;2024-02-16T11:31:24;9.80;67.00
12849;DHT22;6493;50.928;7.172;2024-02-16T11:36:28;9.80;67.00
12849;DHT22;6493;50.928;7.172;2024-02-16T11:41:32;9.80;67.00
12849;DHT22;6493;50.928;7.172;2024-02-16T11:46:37;9.90;67.10
12849;DHT22;6493;50.928;7.172;2024-02-16T11:51:42;9.90;67.30
12849;DHT22;6493;50.928;7.172;2024-02-16T11:56:46;9.90;67.20
12849;DHT22;6493;50.928;7.172;2024-02-16T12:01:56;10.00;67.30
12849;DHT22;6493;50.928;7.172;2024-02-16T12:07:02;10.10;67.60
12849;DHT22;6493;50.928;7.172;2024-02-16T12:12:07;10.10;67.50
12849;DHT22;6493;50.928;7.172;2024-02-16T12:17:15;10.20;67.50
12849;DHT22;6493;50.928;7.172;2024-02-16T12:22:19;10.30;67.70
12849;DHT22;6493;50.928;7.172;2024-02-16T12:27:22;10.40;67.50
12849;DHT22;6493;50.928;7.172;2024-02-16T12:32:27;10.40;67.30
12849;DHT22;6493;50.928;7.172;2024-02-16T12:37:31;10.50;67.40
12849;DHT22;6493;50.928;7.172;2024-02-16T12:42:34;10.50;67.20
12849;DHT22;6493;50.928;7.172;2024-02-16T12:47:39;10.50;68.00
12849;DHT22;6493;50.928;7.172;2024-02-16T12:52:43;10.50;67.20
12849;DHT22;6493;50.928;7.172;2024-02-16T12:57:56;10.50;67.30
12849;DHT22;6493;50.928;7.172;2024-02-16T13:03:01;10.50;67.30
12849;DHT22;6493;50.928;7.172;2024-02-16T13:08:06;10.40;67.30
12849;DHT22;6493;50.928;7.172;2024-02-16T13:13:10;10.40;67.30
12849;DHT22;6493;50.928;7.172;2024-02-16T13:18:15;10.40;67.40
12849;DHT22;6493;50.928;7.172;2024-02-16T13:23:19;10.40;67.50
12849;DHT22;6493;50.928;7.172;2024-02-16T13:28:24;10.50;67.50
12849;DHT22;6493;50.928;7.172;2024-02-16T13:33:29;10.40;67.30
12849;DHT22;6493;50.928;7.172;2024-02-16T13:38:33;10.40;67.50
12849;DHT22;6493;50.928;7.172;2024-02-16T13:43:36;10.40;67.60
12849;DHT22;6493;50.928;7.172;2024-02-16T13:48:42;10.40;67.70
12849;DHT22;6493;50.928;7.172;2024-02-16T13:53:46;10.40;67.70
12849;DHT22;6493;50.928;7.172;2024-02-16T13:58:49;10.30;68.50
12849;DHT22;6493;50.928;7.172;2024-02-16T14:03:55;10.30;67.70
12849;DHT22;6493;50.928;7.172;2024-02-16T14:09:02;10.30;67.90
12849;DHT22;6493;50.928;7.172;2024-02-16T14:14:21;10.20;67.90
12849;DHT22;6493;50.928;7.172;2024-02-16T14:19:40;10.20;68.00
12849;DHT22;6493;50.928;7.172;2024-02-16T14:24:43;10.20;68.20
12849;DHT22;6493;50.928;7.172;2024-02-16T14:29:47;10.10;68.10
12849;DHT22;6493;50.928;7.172;2024-02-16T14:34:52;10.10;68.10
12849;DHT22;6493;50.928;7.172;2024-02-16T14:39:56;10.20;68.50
12849;DHT22;6493;50.928;7.172;2024-02-16T14:45:00;10.20;68.40
12849;DHT22;6493;50.928;7.172;2024-02-16T14:50:07;10.20;68.50
12849;DHT22;6493;50.928;7.172;2024-02-16T14:55:11;10.20;68.60
12849;DHT22;6493;50.928;7.172;2024-02-16T15:00:17;10.20;68.40
12849;DHT22;6493;50.928;7.172;2024-02-16T15:05:22;10.10;68.50
12849;DHT22;6493;50.928;7.172;2024-02-16T15:10:27;10.10;69.30
12849;DHT22;6493;50.928;7.172;2024-02-16T15:15:31;10.10;68.90
12849;DHT22;6493;50.928;7.172;2024-02-16T15:20:37;10.10;68.70
12849;DHT22;6493;50.928;7.172;2024-02-16T15:25:40;10.10;68.80
12849;DHT22;6493;50.928;7.172;2024-02-16T15:30:44;10.10;69.00
12849;DHT22;6493;50.928;7.172;2024-02-16T15:35:49;10.10;69.00
12849;DHT22;6493;50.928;7.172;2024-02-16T15:40:53;10.10;69.10
12849;DHT22;6493;50.928;7.172;2024-02-16T15:45:56;10.10;69.10
12849;DHT22;6493;50.928;7.172;2024-02-16T15:51:01;10.00;69.00
12849;DHT22;6493;50.928;7.172;2024-02-16T15:56:06;10.00;69.30
12849;DHT22;6493;50.928;7.172;2024-02-16T16:01:10;10.00;69.60
12849;DHT22;6493;50.928;7.172;2024-02-16T16:06:15;10.00;69.60
12849;DHT22;6493;50.928;7.172;2024-02-16T16:11:18;9.90;69.70
12849;DHT22;6493;50.928;7.172;2024-02-16T16:16:22;9.90;69.60
12849;DHT22;6493;50.928;7.172;2024-02-16T16:21:27;9.90;69.70
12849;DHT22;6493;50.928;7.172;2024-02-16T16:26:30;9.90;69.80
12849;DHT22;6493;50.928;7.172;2024-02-16T16:31:34;9.90;69.90
12849;DHT22;6493;50.928;7.172;2024-02-16T16:36:39;9.90;69.90
12849;DHT22;6493;50.928;7.172;2024-02-16T16:41:42;9.90;70.10
12849;DHT22;6493;50.928;7.172;2024-02-16T16:46:46;9.90;70.10
12849;DHT22;6493;50.928;7.172;2024-02-16T16:51:52;9.90;70.10
12849;DHT22;6493;50.928;7.172;2024-02-16T16:56:56;9.90;70.20
12849;DHT22;6493;50.928;7.172;2024-02-16T17:02:01;9.90;70.20
12849;DHT22;6493;50.928;7.172;2024-02-16T17:07:07;9.80;70.10
12849;DHT22;6493;50.928;7.172;2024-02-16T17:12:11;9.80;70.10
12849;DHT22;6493;50.928;7.172;2024-02-16T17:17:15;9.80;70.20
12849;DHT22;6493;50.928;7.172;2024-02-16T17:22:20;9.80;70.10
12849;DHT22;6493;50.928;7.172;2024-02-16T17:27:24;9.80;70.20
12849;DHT22;6493;50.928;7.172;2024-02-16T17:32:29;9.70;70.00
12849;DHT22;6493;50.928;7.172;2024-02-16T17:37:34;9.70;70.10
12849;DHT22;6493;50.928;7.172;2024-02-16T17:42:38;9.70;70.20
12849;DHT22;6493;50.928;7.172;2024-02-16T17:47:42;9.70;70.20
12849;DHT22;6493;50.928;7.172;2024-02-16T17:52:47;9.70;70.10
12849;DHT22;6493;50.928;7.172;2024-02-16T17:57:50;9.60;70.10
12849;DHT22;6493;50.928;7.172;2024-02-16T18:02:54;9.60;70.10
12849;DHT22;6493;50.928;7.172;2024-02-16T18:07:59;9.60;70.20
12849;DHT22;6493;50.928;7.172;2024-02-16T18:13:03;9.60;70.40
12849;DHT22;6493;50.928;7.172;2024-02-16T18:18:07;9.60;70.20
12849;DHT22;6493;50.928;7.172;2024-02-16T18:23:12;9.60;70.30
12849;DHT22;6493;50.928;7.172;2024-02-16T18:28:16;9.50;70.10
12849;DHT22;6493;50.928;7.172;2024-02-16T18:33:27;9.50;70.20
12849;DHT22;6493;50.928;7.172;2024-02-16T18:38:33;9.50;70.30
12849;DHT22;6493;50.928;7.172;2024-02-16T18:43:38;9.40;70.20
12849;DHT22;6493;50.928;7.172;2024-02-16T18:48:41;9.40;70.10
12849;DHT22;6493;50.928;7.172;2024-02-16T18:53:51;9.40;70.20
12849;DHT22;6493;50.928;7.172;2024-02-16T18:58:55;9.40;70.30
12849;DHT22;6493;50.928;7.172;2024-02-16T19:03:59;9.30;70.10
12849;DHT22;6493;50.928;7.172;2024-02-16T19:09:06;9.30;70.00
12849;DHT22;6493;50.928;7.172;2024-02-16T19:14:11;9.30;70.10
12849;DHT22;6493;50.928;7.172;2024-02-16T19:19:15;9.20;70.00
12849;DHT22;6493;50.928;7.172;2024-02-16T19:24:20;9.20;70.10
12849;DHT22;6493;50.928;7.172;2024-02-16T19:29:37;9.20;70.20
12849;DHT22;6493;50.928;7.172;2024-02-16T19:34:41;9.10;70.10
12849;DHT22;6493;50.928;7.172;2024-02-16T19:39:46;9.20;70.30
12849;DHT22;6493;50.928;7.172;2024-02-16T19:44:50;9.10;70.20
12849;DHT22;6493;50.928;7.172;2024-02-16T19:49:53;9.10;70.10
12849;DHT22;6493;50.928;7.172;2024-02-16T19:54:58;9.10;70.20
12849;DHT22;6493;50.928;7.172;2024-02-16T20:00:04;9.10;71.00
12849;DHT22;6493;50.928;7.172;2024-02-16T20:05:08;9.00;70.30
12849;DHT22;6493;50.928;7.172;2024-02-16T20:10:13;9.00;70.20
12849;DHT22;6493;50.928;7.172;2024-02-16T20:15:18;9.10;70.40
12849;DHT22;6493;50.928;7.172;2024-02-16T20:20:25;9.10;70.40
12849;DHT22;6493;50.928;7.172;2024-02-16T20:25:30;9.00;70.20
12849;DHT22;6493;50.928;7.172;2024-02-16T20:30:34;9.00;70.30
12849;DHT22;6493;50.928;7.172;2024-02-16T20:35:37;9.00;70.30
12849;DHT22;6493;50.928;7.172;2024-02-16T20:40:44;9.00;70.30
12849;DHT22;6493;50.928;7.172;2024-02-16T20:45:47;9.00;70.40
12849;DHT22;6493;50.928;7.172;2024-02-16T20:50:52;9.00;70.30
12849;DHT22;6493;50.928;7.172;2024-02-16T20:55:57;9.00;70.40
12849;DHT22;6493;50.928;7.172;2024-02-16T21:01:00;8.90;70.30
12849;DHT22;6493;50.928;7.172;2024-02-16T21:06:04;8.90;70.30
12849;DHT22;6493;50.928;7.172;2024-02-16T21:11:10;8.90;70.30
12849;DHT22;6493;50.928;7.172;2024-02-16T21:16:13;8.90;70.40
12849;DHT22;6493;50.928;7.172;2024-02-16T21:21:17;8.90;70.50
12849;DHT22;6493;50.928;7.172;2024-02-16T21:26:24;8.90;70.40
12849;DHT22;6493;50.928;7.172;2024-02-16T21:31:28;8.90;70.30
12849;DHT22;6493;50.928;7.172;2024-02-16T21:36:32;8.90;70.30
12849;DHT22;6493;50.928;7.172;2024-02-16T21:41:37;8.80;70.00
12849;DHT22;6493;50.928;7.172;2024-02-16T21:46:41;8.70;70.00
12849;DHT22;6493;50.928;7.172;2024-02-16T21:51:45;8.70;69.90
12849;DHT22;6493;50.928;7.172;2024-02-16T21:56:50;8.60;69.80
12849;DHT22;6493;50.928;7.172;2024-02-16T22:01:54;8.60;69.90
12849;DHT22;6493;50.928;7.172;2024-02-16T22:06:58;8.50;69.90
12849;DHT22;6493;50.928;7.172;2024-02-16T22:12:04;8.50;70.00
12849;DHT22;6493;50.928;7.172;2024-02-16T22:17:07;8.50;70.90
12849;DHT22;6493;50.928;7.172;2024-02-16T22:22:11;8.50;70.20
12849;DHT22;6493;50.928;7.172;2024-02-16T22:27:18;8.40;70.10
12849;DHT22;6493;50.928;7.172;2024-02-16T22:32:22;8.40;70.20
12849;DHT22;6493;50.928;7.172;2024-02-16T22:37:25;8.40;70.10
12849;DHT22;6493;50.928;7.172;2024-02-16T22:42:31;8.40;70.20
12849;DHT22;6493;50.928;7.172;2024-02-16T22:47:34;8.40;70.20
12849;DHT22;6493;50.928;7.172;2024-02-16T22:52:44;8.40;70.10
12849;DHT22;6493;50.928;7.172;2024-02-16T22:57:48;8.40;70.20
12849;DHT22;6493;50.928;7.172;2024-02-16T23:02:53;8.40;70.10
12849;DHT22;6493;50.928;7.172;2024-02-16T23:07:57;8.30;70.10
12849;DHT22;6493;50.928;7.172;2024-02-16T23:13:02;8.40;70.10
12849;DHT22;6493;50.928;7.172;2024-02-16T23:18:06;8.30;70.10
12849;DHT22;6493;50.928;7.172;2024-02-16T23:23:10;8.30;70.10
12849;DHT22;6493;50.928;7.172;2024-02-16T23:28:15;8.30;70.30
12849;DHT22;6493;50.928;7.172;2024-02-16T23:33:19;8.30;70.20
12849;DHT22;6493;50.928;7.172;2024-02-16T23:38:22;8.20;70.00
12849;DHT22;6493;50.928;7.172;2024-02-16T23:43:27;8.20;69.90
12849;DHT22;6493;50.928;7.172;2024-02-16T23:48:31;8.20;69.90
12849;DHT22;6493;50.928;7.172;2024-02-16T23:53:35;8.10;69.80
12849;DHT22;6493;50.928;7.172;2024-02-16T23:58:40;8.10;69.90
